Time;durP1;ratioP1;P1;durP2;ratioP2;P2;SDS_P1;SDS_P2;PMS_P1;PMS_P2;Temp;Humidity;BMP_temperature;BMP_pressure;BME280_temperature;BME280_humidity;BME280_pressure;Samples;Min_cycle;Max_cycle;Signal;HPM_P1;HPM_P2
2022/08/05 00:00:58;;;;;;;4.18;1.00;;;;;;;17.82;66.32;100710.16;5037710;28;20033;-77
2022/08/05 00:03:23;;;;;;;2.70;0.65;;;;;;;17.77;66.31;100704.69;5029642;28;20406;-77
2022/08/05 00:05:48;;;;;;;1.98;0.68;;;;;;;17.75;66.32;100705.06;5037611;28;20037;-77
2022/08/05 00:08:14;;;;;;;3.10;0.88;;;;;;;17.71;66.69;100711.69;5038772;28;20083;-77
2022/08/05 00:10:39;;;;;;;2.00;0.65;;;;;;;17.67;66.63;100711.53;5037210;28;20037;-77
2022/08/05 00:13:05;;;;;;;2.63;0.90;;;;;;;17.63;66.77;100711.41;5037333;28;20044;-77
2022/08/05 00:15:30;;;;;;;2.97;0.70;;;;;;;17.59;67.12;100721.63;5004500;28;20083;-76
2022/08/05 00:17:56;;;;;;;2.40;0.85;;;;;;;17.57;66.91;100718.34;4988261;28;20033;-77
2022/08/05 00:20:21;;;;;;;1.75;0.70;;;;;;;17.56;66.99;100718.69;5020780;28;20036;-77
2022/08/05 00:22:47;;;;;;;3.17;0.90;;;;;;;17.54;66.67;100719.00;5020566;28;21194;-77
2022/08/05 00:25:12;;;;;;;3.03;0.88;;;;;;;17.51;66.77;100724.47;5036745;28;20032;-77
2022/08/05 00:27:38;;;;;;;4.68;0.93;;;;;;;17.47;66.86;100723.50;5037038;28;20025;-77
2022/08/05 00:30:04;;;;;;;3.22;0.70;;;;;;;17.46;66.97;100733.09;5020562;28;20037;-77
2022/08/05 00:32:29;;;;;;;3.42;0.73;;;;;;;17.38;67.14;100723.53;5038189;28;20405;-77
2022/08/05 00:34:55;;;;;;;3.08;0.80;;;;;;;17.34;67.21;100728.16;4987950;28;20037;-77
2022/08/05 00:37:20;;;;;;;2.25;0.90;;;;;;;17.34;67.36;100730.97;5004263;28;20554;-77
2022/08/05 00:39:46;;;;;;;4.45;0.63;;;;;;;17.29;67.50;100728.34;5036726;28;20083;-77
2022/08/05 00:42:11;;;;;;;3.70;0.80;;;;;;;17.25;67.55;100735.78;5036935;28;20032;-77
2022/08/05 00:44:37;;;;;;;3.80;1.10;;;;;;;17.18;67.59;100731.50;5036756;28;20029;-77
2022/08/05 00:47:02;;;;;;;3.42;0.80;;;;;;;17.18;67.38;100736.28;4985143;28;20030;-77
2022/08/05 00:49:28;;;;;;;2.42;0.88;;;;;;;17.18;67.50;100734.31;5037068;28;20041;-77
2022/08/05 00:51:53;;;;;;;5.07;1.00;;;;;;;17.11;67.92;100736.81;5036589;28;20022;-77
2022/08/05 00:54:19;;;;;;;2.78;0.88;;;;;;;17.08;68.19;100734.66;5020051;28;20079;-77
2022/08/05 00:56:44;;;;;;;1.98;0.90;;;;;;;17.09;68.38;100741.09;4987338;28;20057;-77
2022/08/05 00:59:10;;;;;;;3.72;0.80;;;;;;;17.07;68.26;100741.41;5020023;28;20041;-77
2022/08/05 01:01:35;;;;;;;3.20;0.90;;;;;;;17.06;68.27;100742.59;5020016;28;20030;-77
2022/08/05 01:04:01;;;;;;;3.42;0.88;;;;;;;17.09;68.41;100744.72;5016098;28;20068;-77
2022/08/05 01:06:27;;;;;;;1.58;0.73;;;;;;;17.05;68.60;100746.56;5020104;28;20492;-77
2022/08/05 01:08:52;;;;;;;3.85;0.82;;;;;;;17.05;68.09;100740.09;5020136;28;20029;-77
2022/08/05 01:11:22;;;;;;;3.72;0.70;;;;;;;17.05;68.50;100742.91;4988829;28;20037;-77
2022/08/05 01:13:58;;;;;;;3.65;0.80;;;;;;;17.06;67.95;100745.38;5003505;28;20037;-77
2022/08/05 01:16:50;;;;;;;3.10;1.02;;;;;;;17.06;67.93;100742.59;5020577;28;20068;-77
2022/08/05 01:19:15;;;;;;;4.47;1.35;;;;;;;17.02;68.29;100738.81;5017848;28;20083;-77
2022/08/05 01:21:52;;;;;;;2.75;0.73;;;;;;;16.98;67.99;100735.00;5019612;28;20037;-77
2022/08/05 01:24:27;;;;;;;3.00;0.85;;;;;;;16.97;68.33;100741.78;5035926;28;20045;-77
2022/08/05 01:27:00;;;;;;;3.20;1.10;;;;;;;16.96;68.17;100737.31;5017245;28;20029;-77
2022/08/05 01:29:37;;;;;;;1.65;0.70;;;;;;;16.92;68.03;100730.72;5014970;28;20031;-77
2022/08/05 01:32:05;;;;;;;2.25;0.80;;;;;;;16.92;67.91;100733.53;5035987;28;20029;-77
2022/08/05 01:34:37;;;;;;;2.40;0.90;;;;;;;16.88;68.14;100729.72;4987014;28;20442;-77
2022/08/05 01:37:15;;;;;;;1.13;0.60;;;;;;;16.84;68.02;100734.34;5018965;28;20108;-77
2022/08/05 01:39:40;;;;;;;3.75;0.80;;;;;;;16.83;68.33;100732.72;5017326;28;20034;-77
2022/08/05 01:42:06;;;;;;;2.80;0.80;;;;;;;16.80;68.03;100738.97;4986202;28;20053;-77
2022/08/05 01:44:31;;;;;;;2.97;0.80;;;;;;;16.73;68.38;100745.06;5019557;28;20025;-77
2022/08/05 01:46:57;;;;;;;4.88;0.90;;;;;;;16.67;68.42;100744.38;5019166;28;20032;-77
2022/08/05 01:49:23;;;;;;;1.20;0.70;;;;;;;16.64;68.45;100747.84;5015827;28;20037;-77
2022/08/05 01:51:48;;;;;;;2.40;0.63;;;;;;;16.66;68.42;100745.56;4986639;28;20154;-77
2022/08/05 01:54:14;;;;;;;2.55;0.70;;;;;;;16.60;68.63;100741.25;5002468;28;20040;-77
2022/08/05 01:56:40;;;;;;;3.60;0.90;;;;;;;16.59;68.45;100741.59;5028630;28;20076;-77
2022/08/05 01:59:15;;;;;;;1.42;0.70;;;;;;;16.51;68.43;100743.22;5018758;28;20045;-77
2022/08/05 02:01:41;;;;;;;3.25;0.90;;;;;;;16.47;68.93;100739.44;4984342;28;20034;-77
2022/08/05 02:04:08;;;;;;;1.95;0.73;;;;;;;16.42;68.93;100737.63;5015888;28;20060;-77
2022/08/05 02:06:33;;;;;;;2.45;0.70;;;;;;;16.41;68.83;100747.19;5018877;28;20040;-77
2022/08/05 02:08:59;;;;;;;1.85;0.50;;;;;;;16.39;68.68;100741.06;5018566;28;20481;-77
2022/08/05 02:11:25;;;;;;;1.98;0.80;;;;;;;16.37;68.89;100743.38;5019080;28;20036;-77
2022/08/05 02:14:08;;;;;;;2.22;0.80;;;;;;;16.28;69.12;100739.75;5035197;28;20029;-77
2022/08/05 02:16:33;;;;;;;;;;;;;;;16.27;69.25;100741.72;5003999;28;20099;-77
2022/08/05 02:19:02;;;;;;;1.90;0.75;;;;;;;16.22;69.52;100744.66;5028645;28;19916;-77
2022/08/05 02:21:30;;;;;;;4.03;0.90;;;;;;;16.18;69.31;100743.66;5002020;28;20025;-77
2022/08/05 02:23:57;;;;;;;2.78;0.60;;;;;;;16.16;69.55;100745.97;5009527;28;20037;-77
2022/08/05 02:26:26;;;;;;;2.72;0.80;;;;;;;16.18;69.71;100754.88;4999062;28;20117;-77
2022/08/05 02:28:52;;;;;;;4.45;0.90;;;;;;;16.10;69.69;100755.66;5013849;28;20037;-77
2022/08/05 02:31:22;;;;;;;1.95;0.90;;;;;;;16.07;69.70;100750.72;4986024;28;20041;-77
2022/08/05 02:33:50;;;;;;;2.35;0.80;;;;;;;16.06;69.80;100749.06;5028189;28;20069;-77
2022/08/05 02:36:17;;;;;;;3.50;0.98;;;;;;;16.04;69.92;100751.38;5050354;28;20033;-77
2022/08/05 02:38:45;;;;;;;3.45;0.77;;;;;;;15.98;70.15;100756.31;5001979;28;20037;-77
2022/08/05 02:41:11;;;;;;;3.65;0.75;;;;;;;15.98;69.88;100764.69;4985881;28;20080;-77
2022/08/05 02:43:38;;;;;;;1.98;0.90;;;;;;;15.92;70.13;100759.59;5001924;28;20044;-77
2022/08/05 02:46:03;;;;;;;2.38;0.80;;;;;;;15.90;70.03;100765.50;5018621;28;20083;-77
2022/08/05 02:48:29;;;;;;;2.65;0.80;;;;;;;15.88;70.09;100762.22;5001973;28;20037;-77
2022/08/05 02:50:54;;;;;;;2.05;0.70;;;;;;;15.82;70.18;100775.53;5018520;28;20079;-77
2022/08/05 02:53:20;;;;;;;3.03;0.70;;;;;;;15.81;70.52;100776.66;5018246;28;20026;-77
2022/08/05 02:55:49;;;;;;;1.75;0.60;;;;;;;15.76;70.53;100768.41;5017306;28;20383;-77
2022/08/05 02:58:20;;;;;;;2.85;0.70;;;;;;;15.76;70.49;100770.38;4985448;28;20045;-77
2022/08/05 03:00:45;;;;;;;2.25;0.80;;;;;;;15.73;70.57;100768.22;5029504;28;20030;-77
2022/08/05 03:03:15;;;;;;;2.70;0.80;;;;;;;15.69;70.89;100762.47;5017930;28;20037;-77
2022/08/05 03:05:41;;;;;;;2.45;0.80;;;;;;;15.65;70.85;100767.00;5018003;28;20040;-76
2022/08/05 03:08:08;;;;;;;3.08;1.00;;;;;;;15.62;70.80;100765.66;4985546;28;20033;-77
2022/08/05 03:10:34;;;;;;;2.38;0.80;;;;;;;15.63;70.86;100763.72;5017944;28;20044;-77
2022/08/05 03:12:59;;;;;;;6.13;0.70;;;;;;;15.57;71.35;100762.19;5034440;28;20025;-76
2022/08/05 03:15:25;;;;;;;3.83;0.90;;;;;;;15.54;71.44;100771.22;5018248;28;20021;-77
2022/08/05 03:17:53;;;;;;;3.63;0.93;;;;;;;15.53;71.59;100775.19;4985469;28;20397;-76
2022/08/05 03:20:18;;;;;;;1.90;0.80;;;;;;;15.52;71.65;100779.16;5018024;28;20060;-76
2022/08/05 03:22:44;;;;;;;2.47;0.95;;;;;;;15.51;72.12;100771.88;5017771;28;20033;-77
2022/08/05 03:25:09;;;;;;;4.20;0.90;;;;;;;15.49;71.72;100771.38;5017779;28;20080;-77
2022/08/05 03:27:35;;;;;;;6.03;0.80;;;;;;;15.45;71.96;100774.00;5017614;28;20036;-77
2022/08/05 03:30:00;;;;;;;3.05;0.90;;;;;;;15.42;72.19;100775.44;5034232;28;20025;-77
2022/08/05 03:32:25;;;;;;;4.15;1.13;;;;;;;15.41;72.37;100773.81;5001585;28;20112;-77
2022/08/05 03:34:51;;;;;;;4.10;0.93;;;;;;;15.37;71.96;100769.16;5017665;28;20037;-77
2022/08/05 03:37:16;;;;;;;3.95;0.98;;;;;;;15.32;72.21;100772.09;5010919;28;20032;-76
2022/08/05 03:39:55;;;;;;;2.78;0.93;;;;;;;15.30;72.53;100771.59;4984901;28;20037;-77
2022/08/05 03:42:21;;;;;;;4.63;1.02;;;;;;;15.33;72.56;100774.56;5001536;28;20534;-77
2022/08/05 03:44:46;;;;;;;4.13;0.95;;;;;;;15.28;72.12;100777.50;5001638;28;20030;-77
2022/08/05 03:47:12;;;;;;;5.15;1.02;;;;;;;15.26;72.56;100771.41;5017815;28;20505;-77
2022/08/05 03:49:37;;;;;;;2.17;0.80;;;;;;;15.21;72.74;100765.97;5029105;28;20033;-77
2022/08/05 03:52:05;;;;;;;3.20;0.85;;;;;;;15.19;72.56;100768.25;5006721;28;20072;-76
2022/08/05 03:54:38;;;;;;;5.50;1.10;;;;;;;15.17;72.57;100773.31;4997959;28;20034;-77
2022/08/05 03:57:04;;;;;;;2.15;0.80;;;;;;;15.15;72.78;100770.81;5032887;28;20049;-77
2022/08/05 03:59:34;;;;;;;4.75;1.08;;;;;;;15.16;72.66;100777.28;5003265;28;20482;-77
2022/08/05 04:01:59;;;;;;;4.07;1.13;;;;;;;15.11;72.92;100786.59;5034658;28;20026;-77
2022/08/05 04:04:25;;;;;;;2.85;0.80;;;;;;;15.13;72.78;100777.91;5035424;28;20037;-77
2022/08/05 04:06:50;;;;;;;2.92;0.80;;;;;;;15.12;72.75;100776.25;4988604;28;20033;-77
2022/08/05 04:09:16;;;;;;;2.70;0.85;;;;;;;15.07;73.10;100781.97;5020776;28;20485;-77
2022/08/05 04:11:41;;;;;;;3.42;0.90;;;;;;;15.04;72.83;100779.78;5004707;28;20033;-77
2022/08/05 04:14:07;;;;;;;4.53;0.90;;;;;;;15.00;72.87;100778.78;5004898;28;20022;-77
2022/08/05 04:16:34;;;;;;;2.55;1.00;;;;;;;14.99;72.84;100786.38;5005037;28;20112;-77
2022/08/05 04:19:00;;;;;;;2.72;0.70;;;;;;;14.97;73.05;100789.47;4988821;28;20040;-77
2022/08/05 04:21:26;;;;;;;2.97;0.88;;;;;;;14.95;72.93;100791.75;5020754;28;20037;-77
2022/08/05 04:23:51;;;;;;;2.90;0.80;;;;;;;14.90;73.25;100791.84;5037195;28;20088;-77
2022/08/05 04:26:17;;;;;;;4.00;1.20;;;;;;;14.90;73.04;100783.47;5004240;28;20037;-77
2022/08/05 04:28:42;;;;;;;3.28;1.13;;;;;;;14.85;73.10;100786.41;5020847;28;20029;-76
2022/08/05 04:31:08;;;;;;;2.47;0.70;;;;;;;14.83;73.02;100785.91;5004273;28;20029;-77
2022/08/05 04:33:33;;;;;;;2.75;0.82;;;;;;;14.77;73.46;100783.56;5020690;28;20030;-77
2022/08/05 04:35:59;;;;;;;3.38;1.00;;;;;;;14.74;73.13;100785.81;5004249;28;20033;-76
2022/08/05 04:38:24;;;;;;;3.53;0.70;;;;;;;14.75;73.43;100790.25;5052195;28;20030;-77
2022/08/05 04:40:50;;;;;;;1.90;0.80;;;;;;;14.72;73.18;100792.88;5020420;28;20033;-76
2022/08/05 04:43:15;;;;;;;2.42;0.80;;;;;;;14.68;73.44;100791.84;5036856;28;20041;-76
2022/08/05 04:45:41;;;;;;;1.65;0.65;;;;;;;14.66;74.00;100797.75;5004131;28;20486;-77
2022/08/05 04:48:08;;;;;;;1.42;0.90;;;;;;;14.63;73.81;100797.56;5033680;28;20025;-76
2022/08/05 04:50:48;;;;;;;4.45;0.70;;;;;;;14.65;73.52;100800.84;5014617;28;20044;-76
2022/08/05 04:53:14;;;;;;;2.30;0.80;;;;;;;14.58;73.65;100794.88;5021347;28;20036;-76
2022/08/05 04:55:40;;;;;;;4.13;1.00;;;;;;;14.53;74.00;100796.63;5000341;28;20030;-77
2022/08/05 04:58:07;;;;;;;3.83;0.80;;;;;;;14.53;73.93;100799.44;5002251;28;20061;-76
2022/08/05 05:00:33;;;;;;;2.75;0.60;;;;;;;14.55;73.69;100806.69;5034867;28;20456;-76
2022/08/05 05:02:59;;;;;;;1.75;0.65;;;;;;;14.52;74.06;100806.16;5016812;28;20037;-76
2022/08/05 05:05:24;;;;;;;2.75;0.80;;;;;;;14.52;74.41;100802.56;5036589;28;20033;-77
2022/08/05 05:07:50;;;;;;;3.33;0.80;;;;;;;14.53;74.41;100809.78;5047129;28;20029;-76
2022/08/05 05:10:16;;;;;;;1.85;0.90;;;;;;;14.56;74.79;100813.91;4986334;28;20068;-77
2022/08/05 05:12:41;;;;;;;3.15;1.02;;;;;;;14.61;74.64;100817.44;5003667;28;20036;-77
2022/08/05 05:15:07;;;;;;;2.05;0.68;;;;;;;14.63;74.28;100826.34;5019790;28;20029;-77
2022/08/05 05:17:40;;;;;;;2.40;0.63;;;;;;;14.67;74.18;100826.53;5020018;28;20604;-77
2022/08/05 05:20:06;;;;;;;5.25;1.00;;;;;;;14.74;74.81;100818.56;5019837;28;20036;-77
2022/08/05 05:22:32;;;;;;;2.13;0.80;;;;;;;14.83;75.24;100824.22;5003783;28;20144;-76
2022/08/05 05:24:57;;;;;;;3.50;1.15;;;;;;;14.90;76.65;100830.19;5019219;28;20478;-77
2022/08/05 05:27:23;;;;;;;3.53;1.10;;;;;;;14.97;77.72;100827.78;5019163;28;20516;-76
2022/08/05 05:29:48;;;;;;;5.80;1.25;;;;;;;15.03;78.50;100829.31;5019725;28;20029;-77
2022/08/05 05:32:14;;;;;;;4.43;1.02;;;;;;;15.13;75.52;100828.25;5036044;28;20025;-77
2022/08/05 05:34:39;;;;;;;4.22;0.75;;;;;;;15.22;76.52;100831.94;5019443;28;20025;-76
2022/08/05 05:37:04;;;;;;;5.25;1.20;;;;;;;15.34;76.98;100829.38;5002877;28;20030;-77
2022/08/05 05:39:30;;;;;;;4.38;0.93;;;;;;;15.48;77.93;100834.09;5002918;28;20398;-77
2022/08/05 05:41:55;;;;;;;4.70;1.10;;;;;;;15.61;80.00;100836.00;5019358;28;20505;-77
2022/08/05 05:44:21;;;;;;;5.78;1.15;;;;;;;15.74;76.78;100837.94;5019343;28;20029;-77
2022/08/05 05:46:46;;;;;;;8.15;1.23;;;;;;;15.90;78.75;100843.91;5036024;28;20103;-77
2022/08/05 05:49:12;;;;;;;5.22;1.42;;;;;;;16.06;78.19;100841.53;5015919;28;20033;-77
2022/08/05 05:51:37;;;;;;;3.45;1.40;;;;;;;16.19;77.93;100840.59;5015057;28;20103;-77
2022/08/05 05:54:03;;;;;;;4.53;1.20;;;;;;;16.38;75.64;100845.09;5002690;28;20032;-77
2022/08/05 05:56:29;;;;;;;6.32;1.60;;;;;;;16.55;74.46;100850.78;5004883;28;20506;-77
2022/08/05 05:58:54;;;;;;;5.43;0.90;;;;;;;16.73;73.54;100852.44;5012038;28;20030;-77
2022/08/05 06:01:20;;;;;;;7.03;1.65;;;;;;;16.90;73.36;100854.47;5046184;28;20026;-79
2022/08/05 06:03:45;;;;;;;5.60;1.40;;;;;;;17.06;72.70;100856.81;4999576;28;20037;-77
2022/08/05 06:06:11;;;;;;;8.40;1.50;;;;;;;17.18;72.94;100860.59;5034499;28;20547;-77
2022/08/05 06:08:36;;;;;;;4.57;1.17;;;;;;;17.34;73.02;100865.72;4986273;28;20029;-77
2022/08/05 06:11:02;;;;;;;8.23;1.02;;;;;;;17.52;71.62;100867.34;5018709;28;20037;-77
2022/08/05 06:13:27;;;;;;;3.40;0.80;;;;;;;17.70;69.09;100867.31;4986455;28;20025;-77
2022/08/05 06:15:53;;;;;;;5.50;1.27;;;;;;;17.85;69.49;100861.19;5018861;28;20079;-77
2022/08/05 06:18:18;;;;;;;4.25;0.90;;;;;;;18.03;68.04;100868.41;5035189;28;20029;-76
2022/08/05 06:20:44;;;;;;;6.28;1.13;;;;;;;18.20;68.49;100869.53;5002721;28;20389;-77
2022/08/05 06:23:09;;;;;;;3.17;1.00;;;;;;;18.36;67.31;100866.94;5001769;28;20036;-77
2022/08/05 06:25:34;;;;;;;8.50;0.98;;;;;;;18.50;66.75;100873.19;4988353;28;20084;-70
2022/08/05 06:28:00;;;;;;;7.40;1.25;;;;;;;18.66;67.38;100879.03;5018599;28;20033;-68
2022/08/05 06:30:26;;;;;;;9.65;1.23;;;;;;;18.77;67.15;100877.50;5035250;28;20040;-67
2022/08/05 06:32:52;;;;;;;8.02;1.27;;;;;;;18.94;65.43;100882.19;5018614;28;20076;-67
2022/08/05 06:35:17;;;;;;;8.50;1.23;;;;;;;19.05;65.57;100883.44;5034876;28;20033;-67
2022/08/05 06:37:43;;;;;;;8.10;1.20;;;;;;;19.19;65.04;100891.63;5002180;28;20076;-67
2022/08/05 06:40:09;;;;;;;7.15;1.60;;;;;;;19.30;64.75;100884.41;5018252;28;20413;-68
2022/08/05 06:42:35;;;;;;;5.63;1.10;;;;;;;19.43;64.21;100885.28;5002089;28;20076;-68
2022/08/05 06:45:00;;;;;;;6.82;1.20;;;;;;;19.55;63.94;100892.97;5018668;28;20033;-67
2022/08/05 06:47:26;;;;;;;7.18;1.20;;;;;;;19.65;65.52;100892.56;5001904;28;20029;-67
2022/08/05 06:49:51;;;;;;;10.05;1.80;;;;;;;19.68;64.43;100900.34;5034798;28;20026;-68
2022/08/05 06:52:18;;;;;;;9.13;1.30;;;;;;;19.84;65.19;100898.53;5001842;28;20386;-71
2022/08/05 06:54:43;;;;;;;8.55;1.67;;;;;;;20.00;64.26;100901.50;5034681;28;20076;-73
2022/08/05 06:57:10;;;;;;;9.48;1.33;;;;;;;20.16;62.90;100901.63;5034562;28;20054;-72
2022/08/05 06:59:36;;;;;;;9.30;1.55;;;;;;;20.28;62.12;100907.31;5018212;28;20167;-72
2022/08/05 07:02:01;;;;;;;8.23;1.52;;;;;;;20.37;61.81;100897.94;4998992;28;20026;-71
2022/08/05 07:04:27;;;;;;;7.50;1.40;;;;;;;20.46;61.81;100899.44;5034654;28;20067;-74
2022/08/05 07:06:52;;;;;;;10.57;1.67;;;;;;;20.59;60.96;100902.28;5001665;28;20033;-73
2022/08/05 07:09:18;;;;;;;9.70;1.52;;;;;;;20.68;61.48;100903.84;4998176;28;20504;-76
2022/08/05 07:11:43;;;;;;;10.27;1.55;;;;;;;20.80;61.22;100913.47;5018226;28;20026;-74
2022/08/05 07:16:58;;;;;;;7.28;1.02;;;;;;;21.13;59.54;100918.97;5032366;28;20112;-65
2022/08/05 07:19:26;;;;;;;8.55;1.65;;;;;;;21.24;59.28;100920.13;5034327;28;20044;-75
2022/08/05 07:21:51;;;;;;;10.25;1.10;;;;;;;21.37;59.11;100923.78;5001876;28;20445;-75
2022/08/05 07:24:17;;;;;;;6.25;1.30;;;;;;;21.38;58.52;100926.22;5028099;28;20021;-69
2022/08/05 07:26:43;;;;;;;10.32;1.63;;;;;;;21.52;57.42;100927.84;5035869;28;20504;-73
2022/08/05 07:29:08;;;;;;;9.48;1.52;;;;;;;21.62;57.00;100936.63;5001627;28;20022;-65
2022/08/05 07:31:34;;;;;;;6.25;1.10;;;;;;;21.74;56.98;100940.59;5035742;28;20441;-77
2022/08/05 07:33:59;;;;;;;8.02;1.33;;;;;;;21.88;55.94;100938.19;5002936;28;20030;-77
2022/08/05 07:36:25;;;;;;;8.07;1.35;;;;;;;21.80;55.24;100947.63;5005449;28;20107;-77
2022/08/05 07:38:50;;;;;;;10.15;1.30;;;;;;;21.88;54.40;100943.81;5005137;28;20401;-77
2022/08/05 07:41:18;;;;;;;7.35;1.33;;;;;;;21.97;54.01;100943.66;5002322;28;20026;-78
2022/08/05 07:43:43;;;;;;;8.43;1.23;;;;;;;21.94;52.99;100942.38;5030236;28;20030;-77
2022/08/05 07:46:08;;;;;;;11.52;1.67;;;;;;;21.93;52.78;100946.41;5032196;28;20033;-77
2022/08/05 07:48:34;;;;;;;7.97;1.05;;;;;;;22.03;53.29;100956.34;5005322;28;20025;-65
2022/08/05 07:50:59;;;;;;;9.95;1.48;;;;;;;22.03;53.74;100962.81;5005130;28;20048;-65
2022/08/05 07:53:25;;;;;;;8.95;1.25;;;;;;;22.12;53.82;100965.53;5021519;28;20026;-65
2022/08/05 07:55:50;;;;;;;7.35;1.75;;;;;;;22.18;53.41;100968.94;5017774;28;20034;-77
2022/08/05 07:58:16;;;;;;;10.38;1.35;;;;;;;22.23;52.46;100965.81;5004738;28;20133;-75
2022/08/05 08:00:42;;;;;;;6.55;1.33;;;;;;;22.25;52.40;100974.78;5022182;28;20025;-73
2022/08/05 08:03:11;;;;;;;10.95;1.50;;;;;;;22.21;51.68;100973.88;5039003;28;20029;-77
2022/08/05 08:05:43;;;;;;;4.55;1.13;;;;;;;22.17;52.14;100970.88;4983659;28;20034;-78
2022/08/05 08:08:11;;;;;;;11.80;1.83;;;;;;;22.22;51.79;100981.16;5021767;28;20596;-77
2022/08/05 08:10:37;;;;;;;8.10;1.00;;;;;;;22.27;51.70;100978.88;5021090;28;20063;-76
2022/08/05 08:13:03;;;;;;;7.43;1.35;;;;;;;22.36;51.71;100984.38;5020937;28;20471;-78
2022/08/05 08:15:28;;;;;;;5.88;1.05;;;;;;;22.47;51.53;100982.66;5021389;28;20029;-77
2022/08/05 08:17:54;;;;;;;4.88;0.90;;;;;;;22.56;51.71;100984.47;5001470;28;20040;-75
2022/08/05 08:20:20;;;;;;;7.00;1.30;;;;;;;22.57;51.64;100984.13;5033762;28;20030;-75
2022/08/05 08:22:53;;;;;;;4.78;1.00;;;;;;;22.65;51.54;100985.13;5004468;28;20029;-75
2022/08/05 08:25:18;;;;;;;10.80;1.60;;;;;;;22.75;50.81;100988.22;5018008;28;20026;-74
2022/08/05 08:27:44;;;;;;;6.03;1.27;;;;;;;22.78;50.30;100989.50;5004147;28;20029;-75
2022/08/05 08:30:13;;;;;;;11.40;1.58;;;;;;;22.83;50.51;100992.06;5016145;28;21274;-74
2022/08/05 08:32:38;;;;;;;8.07;1.67;;;;;;;22.79;50.60;100987.50;5038637;28;20029;-72
2022/08/05 08:35:04;;;;;;;10.05;1.33;;;;;;;22.86;50.61;100988.50;5037266;28;20051;-67
2022/08/05 08:37:30;;;;;;;9.05;1.30;;;;;;;22.93;50.03;100991.53;5020580;28;20028;-65
2022/08/05 08:39:55;;;;;;;10.00;1.45;;;;;;;22.86;50.50;100999.84;5020352;28;20025;-65
2022/08/05 08:42:21;;;;;;;8.23;1.30;;;;;;;22.91;50.77;100993.91;5020679;28;20037;-64
2022/08/05 08:44:46;;;;;;;7.30;1.45;;;;;;;22.92;50.16;101001.19;5016372;28;20736;-65
2022/08/05 08:47:12;;;;;;;12.07;1.45;;;;;;;22.99;49.65;101000.59;5020424;28;20041;-65
2022/08/05 08:49:38;;;;;;;8.35;1.60;;;;;;;23.01;49.44;100994.53;5036943;28;20379;-65
2022/08/05 08:52:23;;;;;;;10.45;1.50;;;;;;;23.11;49.49;101005.31;5020275;28;20026;-65
2022/08/05 08:54:52;;;;;;;7.45;1.65;;;;;;;23.01;49.08;100994.53;5036026;28;20036;-65
2022/08/05 08:57:18;;;;;;;9.80;1.48;;;;;;;23.01;48.49;101003.03;5020582;28;20386;-67
2022/08/05 08:59:43;;;;;;;7.22;1.90;;;;;;;23.10;48.63;100992.38;5003810;28;20151;-68
2022/08/05 09:02:09;;;;;;;9.23;1.75;;;;;;;23.18;48.69;100997.00;5018040;28;20030;-67
2022/08/05 09:04:36;;;;;;;8.07;1.50;;;;;;;23.35;48.83;101002.28;5004079;28;20041;-68
2022/08/05 09:07:04;;;;;;;5.35;1.35;;;;;;;23.52;47.88;100994.56;5004308;28;20036;-68
2022/08/05 09:09:30;;;;;;;8.70;1.35;;;;;;;23.54;47.17;101001.50;5020229;28;20116;-68
2022/08/05 09:11:55;;;;;;;6.85;1.40;;;;;;;23.72;47.48;101001.91;5000762;28;20107;-68
2022/08/05 09:14:21;;;;;;;7.18;1.25;;;;;;;23.75;46.99;101006.00;5003530;28;20029;-68
2022/08/05 09:16:46;;;;;;;6.72;1.13;;;;;;;23.88;45.96;101009.53;5003653;28;20477;-68
2022/08/05 09:19:12;;;;;;;6.18;1.42;;;;;;;23.97;46.12;100999.59;5019930;28;20133;-78
2022/08/05 09:21:37;;;;;;;6.82;1.38;;;;;;;24.08;45.89;101003.47;5003199;28;20363;-78
2022/08/05 09:24:04;;;;;;;4.72;1.10;;;;;;;24.03;44.58;101000.13;5019764;28;20040;-78
2022/08/05 09:26:30;;;;;;;7.53;1.33;;;;;;;24.09;44.66;100998.63;5036071;28;20049;-78
2022/08/05 09:29:00;;;;;;;6.28;1.30;;;;;;;24.17;44.84;101000.41;5003146;28;20120;-79
2022/08/05 09:31:26;;;;;;;8.38;1.30;;;;;;;24.28;44.48;101006.28;5003564;28;20033;-77
2022/08/05 09:34:02;;;;;;;7.18;1.10;;;;;;;24.30;44.15;101010.41;5037352;28;20025;-77
2022/08/05 09:36:40;;;;;;;6.25;1.10;;;;;;;24.35;43.65;101006.44;5012939;28;20041;-69
2022/08/05 09:39:10;;;;;;;5.78;1.10;;;;;;;24.38;43.49;101004.88;5032394;28;20037;-77
2022/08/05 09:41:59;;;;;;;6.35;1.25;;;;;;;24.53;43.74;101007.59;5019580;28;20033;-78
2022/08/05 09:44:35;;;;;;;7.75;1.08;;;;;;;24.61;43.48;101011.41;5004185;28;20491;-77
2022/08/05 09:47:09;;;;;;;5.95;1.35;;;;;;;24.54;42.99;101014.09;4987691;28;20037;-76
2022/08/05 09:49:39;;;;;;;9.10;1.30;;;;;;;24.72;43.32;101020.13;5007715;28;20034;-77
2022/08/05 09:52:17;;;;;;;8.70;1.27;;;;;;;24.80;43.40;101021.06;5035554;28;20033;-77
2022/08/05 09:55:00;;;;;;;7.97;1.20;;;;;;;24.82;43.13;101013.78;5027968;28;20036;-77
2022/08/05 09:57:31;;;;;;;9.75;1.30;;;;;;;24.94;42.74;101016.44;5018878;28;20391;-76
2022/08/05 10:00:05;;;;;;;6.28;1.35;;;;;;;24.93;42.47;101031.03;5066274;28;20123;-76
2022/08/05 10:02:35;;;;;;;3.10;1.08;;;;;;;25.06;42.29;101026.78;5002575;28;20080;-76
2022/08/05 10:05:05;;;;;;;8.25;1.15;;;;;;;24.96;42.25;101030.25;5019221;28;20044;-76
2022/08/05 10:07:51;;;;;;;9.70;1.10;;;;;;;24.98;42.56;101031.53;5035633;28;20040;-77
2022/08/05 10:10:19;;;;;;;4.38;1.15;;;;;;;25.02;42.33;101028.75;5023861;28;20045;-77
2022/08/05 10:12:53;;;;;;;4.93;1.02;;;;;;;25.02;42.07;101034.44;5047631;28;20658;-76
2022/08/05 10:15:26;;;;;;;4.82;0.98;;;;;;;24.97;42.08;101031.91;5002651;28;20097;-77
2022/08/05 10:18:13;;;;;;;7.43;1.20;;;;;;;24.90;41.83;101037.47;5035468;28;20045;-77
2022/08/05 10:20:42;;;;;;;6.40;1.13;;;;;;;24.85;42.18;101043.47;5035199;28;20041;-76
2022/08/05 10:23:28;;;;;;;6.45;1.13;;;;;;;24.92;41.94;101026.56;5019111;28;20516;-77
2022/08/05 10:25:55;;;;;;;4.50;1.30;;;;;;;24.86;42.25;101039.44;4995644;28;20512;-79
2022/08/05 10:28:20;;;;;;;7.78;1.40;;;;;;;24.83;42.42;101038.16;4999114;28;20041;-77
2022/08/05 10:30:46;;;;;;;7.00;1.27;;;;;;;24.90;42.42;101046.81;5018908;28;20041;-78
2022/08/05 10:33:11;;;;;;;6.65;1.10;;;;;;;24.91;42.94;101048.47;5001816;28;20025;-78
2022/08/05 10:35:37;;;;;;;6.88;1.27;;;;;;;24.93;42.00;101056.59;5018462;28;20037;-79
2022/08/05 10:38:03;;;;;;;8.60;1.40;;;;;;;24.99;42.28;101052.25;5034733;28;20099;-77
2022/08/05 10:40:29;;;;;;;5.30;1.17;;;;;;;25.10;42.01;101056.09;5002014;28;20029;-77
2022/08/05 10:42:57;;;;;;;5.47;1.13;;;;;;;25.16;41.75;101050.94;5018636;28;20025;-77
2022/08/05 10:45:27;;;;;;;4.85;0.90;;;;;;;25.22;41.84;101063.63;5018450;28;20597;-78
2022/08/05 10:47:53;;;;;;;8.23;1.42;;;;;;;25.28;41.71;101061.28;5018384;28;20026;-77
2022/08/05 10:50:18;;;;;;;7.68;1.00;;;;;;;25.22;41.07;101066.47;5001974;28;20041;-78
2022/08/05 10:52:58;;;;;;;8.15;0.90;;;;;;;25.25;41.17;101067.72;5018422;28;20028;-78
2022/08/05 10:55:24;;;;;;;5.28;1.35;;;;;;;25.24;40.74;101063.22;5016399;28;20034;-64
2022/08/05 10:58:08;;;;;;;7.97;1.30;;;;;;;25.24;40.84;101068.91;5018371;28;20485;-77
2022/08/05 11:00:34;;;;;;;7.03;1.27;;;;;;;25.13;40.85;101069.53;5002276;28;20056;-77
2022/08/05 11:03:03;;;;;;;4.68;1.08;;;;;;;25.22;40.92;101069.31;5016252;28;20474;-77
2022/08/05 11:05:28;;;;;;;7.22;0.93;;;;;;;25.21;40.23;101075.38;5018202;28;20037;-77
2022/08/05 11:08:04;;;;;;;9.20;1.33;;;;;;;25.22;40.26;101071.34;4985734;28;20064;-77
2022/08/05 11:10:30;;;;;;;7.43;1.25;;;;;;;25.25;40.18;101070.56;5018861;28;20348;-76
2022/08/05 11:12:56;;;;;;;5.68;0.90;;;;;;;25.34;39.69;101073.97;5022322;28;20164;-77
2022/08/05 11:15:31;;;;;;;7.72;0.82;;;;;;;25.43;39.61;101068.81;4995993;28;20026;-78
2022/08/05 11:18:07;;;;;;;6.38;1.00;;;;;;;25.47;39.48;101071.75;5022363;28;20120;-77
2022/08/05 11:20:44;;;;;;;6.95;0.95;;;;;;;25.33;39.25;101063.81;5036121;28;20462;-77
2022/08/05 11:23:27;;;;;;;5.03;0.93;;;;;;;25.48;39.22;101068.50;5019596;28;20033;-81
2022/08/05 11:26:06;;;;;;;6.45;0.98;;;;;;;25.32;38.77;101082.84;5038249;28;20125;-77
2022/08/05 11:28:31;;;;;;;7.30;1.20;;;;;;;25.31;38.36;101088.94;5005500;28;20022;-77